createdAt,value
2022-12-31T09:26:36.284Z,0.80
2022-12-31T09:29:10.064Z,0.80
2022-12-31T09:31:41.326Z,0.73
2022-12-31T09:34:14.739Z,0.90
2022-12-31T09:36:45.218Z,0.90
2022-12-31T09:39:17.572Z,0.77
2022-12-31T09:42:02.165Z,0.90
2022-12-31T09:44:42.914Z,1.00
2022-12-31T09:47:29.111Z,0.80
2022-12-31T09:50:06.054Z,0.90
2022-12-31T09:52:44.743Z,0.80
2022-12-31T09:55:27.292Z,0.93
2022-12-31T09:58:02.929Z,0.80
2022-12-31T10:00:34.744Z,0.80
2022-12-31T10:03:19.059Z,1.07
2022-12-31T10:05:53.707Z,0.70
2022-12-31T10:08:30.483Z,0.90
2022-12-31T10:10:59.733Z,0.93
2022-12-31T10:13:35.222Z,0.90
2022-12-31T10:16:10.072Z,0.93
2022-12-31T10:18:46.965Z,0.80
2022-12-31T10:21:21.918Z,1.03
2022-12-31T10:23:56.106Z,0.87
2022-12-31T10:26:29.012Z,0.60
2022-12-31T10:29:02.396Z,0.80
2022-12-31T10:31:41.032Z,0.80
2022-12-31T10:34:15.195Z,0.90
2022-12-31T10:36:56.566Z,0.93
2022-12-31T10:39:42.480Z,0.80
2022-12-31T10:42:28.349Z,1.10
2022-12-31T10:45:14.986Z,1.00
2022-12-31T10:48:00.606Z,1.17
2022-12-31T10:50:34.791Z,1.00
2022-12-31T10:53:18.019Z,1.10
2022-12-31T10:56:12.248Z,1.00
2022-12-31T10:59:02.150Z,0.90
2022-12-31T11:01:37.957Z,1.20
2022-12-31T11:04:20.869Z,0.77
2022-12-31T11:07:10.265Z,1.00
2022-12-31T11:09:50.334Z,1.00
2022-12-31T11:12:27.472Z,0.97
2022-12-31T11:15:12.992Z,0.90
2022-12-31T11:17:50.864Z,1.13
2022-12-31T11:20:26.853Z,1.23
2022-12-31T11:23:03.536Z,0.97
2022-12-31T11:25:35.053Z,1.03
2022-12-31T11:28:09.573Z,1.10
2022-12-31T11:30:41.789Z,1.20
2022-12-31T11:33:19.256Z,1.10
2022-12-31T11:35:57.330Z,1.27
2022-12-31T11:38:27.010Z,1.20
2022-12-31T11:40:57.600Z,1.00
2022-12-31T11:43:28.517Z,1.00
2022-12-31T11:46:20.369Z,1.30
2022-12-31T11:48:55.493Z,1.23
2022-12-31T11:51:36.998Z,1.60
2022-12-31T11:54:17.014Z,1.20
2022-12-31T11:56:47.071Z,1.90
2022-12-31T11:59:19.428Z,2.63
2022-12-31T12:01:53.037Z,2.80
2022-12-31T12:04:22.132Z,2.37
2022-12-31T12:06:50.225Z,1.30
2022-12-31T12:09:21.623Z,1.80
2022-12-31T12:11:58.805Z,1.40
2022-12-31T12:14:31.709Z,1.43
2022-12-31T12:17:04.772Z,1.20
2022-12-31T12:19:35.651Z,1.70
2022-12-31T12:22:11.300Z,1.13
2022-12-31T12:24:39.558Z,1.20
2022-12-31T12:27:20.998Z,1.70
2022-12-31T12:29:50.152Z,1.67
2022-12-31T12:32:19.445Z,1.80
2022-12-31T12:34:50.489Z,1.33
2022-12-31T12:37:32.288Z,1.77
2022-12-31T12:40:02.249Z,1.43
2022-12-31T12:42:30.093Z,1.47
2022-12-31T12:45:05.751Z,1.70
2022-12-31T12:47:34.314Z,1.27
2022-12-31T12:50:04.131Z,1.23
2022-12-31T12:52:47.688Z,2.00
2022-12-31T12:55:20.671Z,1.70
2022-12-31T12:57:51.501Z,1.67
2022-12-31T13:00:21.532Z,0.90
2022-12-31T13:03:08.786Z,1.20
2022-12-31T13:05:43.788Z,1.30
2022-12-31T13:08:18.323Z,1.40
2022-12-31T13:10:52.367Z,1.33
2022-12-31T13:13:25.207Z,1.07
2022-12-31T13:15:57.801Z,1.30
2022-12-31T13:18:33.188Z,1.30
2022-12-31T13:21:04.329Z,1.40
2022-12-31T13:23:39.597Z,1.20
2022-12-31T13:26:10.795Z,1.30
2022-12-31T13:28:42.934Z,1.60
2022-12-31T13:31:12.250Z,1.27
2022-12-31T13:33:42.350Z,1.57
2022-12-31T13:36:15.177Z,1.30
2022-12-31T13:38:44.669Z,1.00
2022-12-31T13:41:14.598Z,1.33
2022-12-31T13:43:50.664Z,1.70
2022-12-31T13:46:21.875Z,1.10
2022-12-31T13:48:53.501Z,1.40
2022-12-31T13:51:26.872Z,1.20
2022-12-31T13:53:58.599Z,1.10
2022-12-31T13:56:29.452Z,1.50
2022-12-31T13:58:59.361Z,1.10
2022-12-31T14:01:33.704Z,1.20
2022-12-31T14:04:05.911Z,1.17
2022-12-31T14:06:38.155Z,2.10
2022-12-31T14:09:06.469Z,1.60
2022-12-31T14:11:44.019Z,1.50
2022-12-31T14:14:16.400Z,1.50
2022-12-31T14:16:47.930Z,1.57
2022-12-31T14:19:25.998Z,1.87
2022-12-31T14:22:04.559Z,1.40
2022-12-31T14:24:38.643Z,1.47
2022-12-31T14:27:08.456Z,1.67
2022-12-31T14:29:38.238Z,2.60
2022-12-31T14:32:15.635Z,2.43
2022-12-31T14:34:50.470Z,1.60
2022-12-31T14:37:23.291Z,1.23
2022-12-31T14:39:56.107Z,1.30
2022-12-31T14:42:29.721Z,1.47
2022-12-31T14:45:05.309Z,1.90
2022-12-31T14:47:39.399Z,1.30
2022-12-31T14:50:10.307Z,1.37
2022-12-31T14:52:50.472Z,2.00
2022-12-31T14:55:25.434Z,1.53
2022-12-31T15:00:52.212Z,1.80
2022-12-31T15:03:24.927Z,1.60
2022-12-31T15:05:53.996Z,1.90
2022-12-31T15:08:39.683Z,2.33
2022-12-31T15:11:19.148Z,2.67
2022-12-31T15:13:53.488Z,2.23
2022-12-31T15:16:36.280Z,2.47
2022-12-31T15:19:24.312Z,2.00
2022-12-31T15:21:59.883Z,2.00
2022-12-31T15:24:30.733Z,3.90
2022-12-31T15:27:00.869Z,3.10
2022-12-31T15:29:33.099Z,2.40
2022-12-31T15:32:02.310Z,3.00
2022-12-31T15:34:31.376Z,3.70
2022-12-31T15:37:01.144Z,3.30
2022-12-31T15:39:38.480Z,3.10
2022-12-31T15:42:39.196Z,2.80
2022-12-31T15:45:14.464Z,2.73
2022-12-31T15:47:44.429Z,3.47
2022-12-31T15:50:15.782Z,3.60
2022-12-31T15:52:45.729Z,6.00
2022-12-31T15:55:20.650Z,4.50
2022-12-31T15:57:49.049Z,3.60
2022-12-31T16:00:19.290Z,3.70
2022-12-31T16:02:48.154Z,3.70
2022-12-31T16:05:23.128Z,4.53
2022-12-31T16:07:53.442Z,4.37
2022-12-31T16:10:24.732Z,6.97
2022-12-31T16:12:53.580Z,4.90
2022-12-31T16:15:24.477Z,4.97
2022-12-31T16:17:59.693Z,4.63
2022-12-31T16:20:30.366Z,4.20
2022-12-31T16:22:58.626Z,5.00
2022-12-31T16:25:31.163Z,6.20
2022-12-31T16:27:59.711Z,7.80
2022-12-31T16:30:29.878Z,6.00
2022-12-31T16:32:59.703Z,4.80
2022-12-31T16:35:29.772Z,4.17
2022-12-31T16:38:05.054Z,3.63
2022-12-31T16:40:32.943Z,4.73
2022-12-31T16:43:01.393Z,3.20
2022-12-31T16:45:32.332Z,5.10
2022-12-31T16:48:03.731Z,4.17
2022-12-31T16:50:31.725Z,5.73
2022-12-31T16:53:00.977Z,3.83
2022-12-31T16:55:29.917Z,3.23
2022-12-31T16:58:00.962Z,4.40
2022-12-31T17:00:28.829Z,3.50
2022-12-31T17:03:05.350Z,4.10
2022-12-31T17:05:35.162Z,4.00
2022-12-31T17:08:15.727Z,4.00
2022-12-31T17:10:43.554Z,3.90
2022-12-31T17:13:30.271Z,4.90
2022-12-31T17:15:59.520Z,4.77
2022-12-31T17:18:31.229Z,4.50
2022-12-31T17:21:06.412Z,5.20
2022-12-31T17:23:36.554Z,6.10
2022-12-31T17:26:07.196Z,4.47
2022-12-31T17:28:41.410Z,5.80
2022-12-31T17:31:23.989Z,4.97
2022-12-31T17:33:55.087Z,5.50
2022-12-31T17:36:23.447Z,5.97
2022-12-31T17:38:51.335Z,5.30
2022-12-31T17:41:24.443Z,4.77
2022-12-31T17:43:54.234Z,5.77
2022-12-31T17:46:22.897Z,5.33
2022-12-31T17:48:52.715Z,7.93
2022-12-31T17:51:24.389Z,6.70
2022-12-31T17:53:52.478Z,6.63
2022-12-31T17:56:20.639Z,6.00
2022-12-31T17:58:49.756Z,5.47
2022-12-31T18:01:18.887Z,4.83
2022-12-31T18:03:47.762Z,5.37
2022-12-31T18:06:17.224Z,7.00
2022-12-31T18:08:46.750Z,5.50
2022-12-31T18:11:16.678Z,7.43
2022-12-31T18:13:44.587Z,8.17
2022-12-31T18:16:12.819Z,6.77
2022-12-31T18:18:41.926Z,9.33
2022-12-31T18:21:14.053Z,6.97
2022-12-31T18:23:43.087Z,6.03
2022-12-31T18:26:13.960Z,6.27
2022-12-31T18:28:42.675Z,6.40
2022-12-31T18:31:14.675Z,7.00
2022-12-31T18:33:42.343Z,6.97
2022-12-31T18:36:12.344Z,4.30
2022-12-31T18:38:40.315Z,5.20
2022-12-31T18:41:08.535Z,4.53
2022-12-31T18:43:37.691Z,4.67
2022-12-31T18:46:06.861Z,4.83
2022-12-31T18:48:35.246Z,6.20
2022-12-31T18:51:02.955Z,9.00
2022-12-31T18:53:33.413Z,7.00
2022-12-31T18:56:01.120Z,9.47
2022-12-31T18:58:28.994Z,8.80
2022-12-31T19:00:58.495Z,8.70
2022-12-31T19:03:28.209Z,9.80
2022-12-31T19:05:55.999Z,9.90
2022-12-31T19:08:24.296Z,15.00
2022-12-31T19:10:53.537Z,20.00
2022-12-31T19:13:23.919Z,17.50
2022-12-31T19:15:52.574Z,10.10
2022-12-31T19:18:21.623Z,13.83
2022-12-31T19:20:49.486Z,11.30
2022-12-31T19:23:18.308Z,11.63
2022-12-31T19:25:46.525Z,21.13
2022-12-31T19:28:16.247Z,10.37
2022-12-31T19:30:47.036Z,8.07
2022-12-31T19:33:15.140Z,8.87
2022-12-31T19:35:44.489Z,7.33
2022-12-31T19:38:16.780Z,6.10
2022-12-31T19:40:44.475Z,6.90
2022-12-31T19:43:13.064Z,10.30
2022-12-31T19:45:41.590Z,7.17
2022-12-31T19:48:11.223Z,6.07
2022-12-31T19:50:41.427Z,8.90
2022-12-31T19:53:12.110Z,8.67
2022-12-31T19:55:40.263Z,9.07
2022-12-31T19:58:08.734Z,9.30
2022-12-31T20:00:37.579Z,7.90
2022-12-31T20:03:05.286Z,7.00
2022-12-31T20:05:33.091Z,5.10
2022-12-31T20:08:00.976Z,4.27
2022-12-31T20:10:30.119Z,6.07
2022-12-31T20:12:58.244Z,6.77
2022-12-31T20:15:25.993Z,8.37
2022-12-31T20:17:53.705Z,11.37
2022-12-31T20:20:21.585Z,11.03
2022-12-31T20:22:49.194Z,9.37
2022-12-31T20:25:17.081Z,11.87
2022-12-31T20:27:46.179Z,8.53
2022-12-31T20:30:15.611Z,9.83
2022-12-31T20:32:43.363Z,14.80
2022-12-31T20:35:11.713Z,14.30
2022-12-31T20:37:39.688Z,23.70
2022-12-31T20:40:08.276Z,10.13
2022-12-31T20:42:37.361Z,9.13
2022-12-31T20:45:07.291Z,7.80
2022-12-31T20:47:37.970Z,8.67
2022-12-31T20:50:13.401Z,8.80
2022-12-31T20:52:43.764Z,10.13
2022-12-31T20:55:13.670Z,9.70
2022-12-31T20:57:41.366Z,10.40
2022-12-31T21:00:12.505Z,9.93
2022-12-31T21:02:42.633Z,9.70
2022-12-31T21:05:11.884Z,9.27
2022-12-31T21:07:39.780Z,8.10
2022-12-31T21:10:07.980Z,10.60
2022-12-31T21:12:44.072Z,7.73
2022-12-31T21:15:13.957Z,9.37
2022-12-31T21:17:41.887Z,7.93
2022-12-31T21:20:10.331Z,10.53
2022-12-31T21:22:38.089Z,11.03
2022-12-31T21:25:06.397Z,8.70
2022-12-31T21:27:34.401Z,7.47
2022-12-31T21:30:18.402Z,8.07
2022-12-31T21:32:48.523Z,14.10
2022-12-31T21:35:43.366Z,12.53
2022-12-31T21:38:05.229Z,13.67
2022-12-31T21:40:33.249Z,12.40
2022-12-31T21:43:01.267Z,8.90
2022-12-31T21:45:29.095Z,9.70
2022-12-31T21:48:18.587Z,10.80
2022-12-31T21:50:48.619Z,7.97
2022-12-31T21:53:21.765Z,7.70
2022-12-31T21:56:11.663Z,8.60
2022-12-31T21:58:40.603Z,8.30
2022-12-31T22:01:26.537Z,9.43
2022-12-31T22:03:55.737Z,9.80
2022-12-31T22:06:24.847Z,7.80
2022-12-31T22:08:54.180Z,10.47
2022-12-31T22:11:22.832Z,8.17
2022-12-31T22:13:50.880Z,6.23
2022-12-31T22:16:21.027Z,6.13
2022-12-31T22:18:49.437Z,9.40
2022-12-31T22:21:20.484Z,7.37
2022-12-31T22:23:49.745Z,9.50
2022-12-31T22:26:18.706Z,6.90
2022-12-31T22:28:47.019Z,6.90
2022-12-31T22:31:15.784Z,7.30
2022-12-31T22:33:43.784Z,12.60
2022-12-31T22:36:13.256Z,9.80
2022-12-31T22:38:42.961Z,10.00
2022-12-31T22:41:11.877Z,9.50
2022-12-31T22:43:40.748Z,9.10
2022-12-31T22:46:10.165Z,12.90
2022-12-31T22:48:38.152Z,10.30
2022-12-31T22:51:06.290Z,13.07
2022-12-31T22:53:34.336Z,17.10
2022-12-31T22:56:04.065Z,19.57
2022-12-31T22:58:32.049Z,37.63
2022-12-31T23:01:01.297Z,38.90
2022-12-31T23:03:29.011Z,62.17
2022-12-31T23:05:56.764Z,96.47
2022-12-31T23:08:24.803Z,109.97
2022-12-31T23:11:01.589Z,94.33
2022-12-31T23:13:50.859Z,59.30
2022-12-31T23:16:37.471Z,94.63
2022-12-31T23:19:23.647Z,93.20
2022-12-31T23:22:08.901Z,80.27
2022-12-31T23:24:37.081Z,89.37
2022-12-31T23:27:05.207Z,97.63
2022-12-31T23:29:34.402Z,84.90
2022-12-31T23:32:02.246Z,75.47
2022-12-31T23:34:30.804Z,63.80
2022-12-31T23:36:58.479Z,86.43
2022-12-31T23:39:26.583Z,58.27
2022-12-31T23:41:54.385Z,52.07
2022-12-31T23:44:22.243Z,52.00
2022-12-31T23:46:51.408Z,45.60
2022-12-31T23:49:19.249Z,47.20
2022-12-31T23:51:46.894Z,42.33
2022-12-31T23:54:18.003Z,41.80
2022-12-31T23:56:45.744Z,40.63
2022-12-31T23:59:13.900Z,33.13
